Etusivu
METAR-TAF:

METAR-TAF

Lentoasemat :

Pointe-Noire, Kongo

Leveyspiiri: 04-49S, Pituuspiiri: 011-54E, korkeus merenpinnasta: 17 m

Tämänhetkinen sää

Tämä raportti tehtiin 28 minuuttia sitten, kello 04.00 UTC
tyyntä
Lämpötila 22°C
Kosteus 88%
Ilmanpaine 1014 hPa
Näkyvyys: 6000 m
Hajanaisia pilviä 900 ft:n korkeudessa
Pilvistä 2600 ft:n korkeudessa

METAR: FCPP 220400Z 00000KT 6000 SCT009 OVC026 22/20 Q1014 NOSIG

Aika: 05:28 (04:28 UTC)

Sääennuste

Tämä raportti tehtiin 5 tuntia ja 28 minuuttia sitten, kello 23.00 UTC
Ennuste voimassa 22. päivästä klo 00 UTC - 22. päivään klo 24 UTC
Tuuli 4 kn etelästä
Näkyvyys: 6000 m
Hajanaisia pilviä 1000 ft:n korkeudessa
Pilvistä 2000 ft:n korkeudessa
Todennäköisyys 40%
22. päivästä klo 03 UTC - 22. päivään klo 07 UTC
Näkyvyys: 3000 m
utua

TAF: FCPP 212300Z 2200/2224 18004KT 6000 SCT010 OVC020 PROB40 2203/2207 3000 BR

Säähavainnot ja -ennusteet yli 4000 lentoasemalta (METAR- ja TAF-raportit).

Käytössä olevat sääasemat on merkitty karttaan keltaisilla ja punaisilla pisteillä.

Aseta hiiri pisteen päälle nähdäksesi sääaseman nimen.

Klikkaa sitten nähdäksesi säähavainnot ja -ennusteet.

Kartan vaihtaminen: klikkaa mustalla rastilla varustettuja vihreitä pisteitä, niin voit zoomata sisään; viivalla varustettua vihreää pistettä, niin voit zoomata ulos tai vihreitä nuolia, niin pääset viereisille kartoille.


METAR-TAF: